createdAt,value
2019-01-21T00:02:21.117Z,58.87
2019-01-21T00:05:08.291Z,59.10
2019-01-21T00:07:55.518Z,54.30
2019-01-21T00:10:42.956Z,58.40
2019-01-21T00:13:30.289Z,57.57
2019-01-21T00:16:17.773Z,51.80
2019-01-21T00:19:05.194Z,55.23
2019-01-21T00:21:53.046Z,53.83
2019-01-21T00:24:40.639Z,50.00
2019-01-21T00:27:28.271Z,53.53
2019-01-21T00:30:15.882Z,52.67
2019-01-21T00:33:03.838Z,51.47
2019-01-21T00:35:51.650Z,56.20
2019-01-21T00:38:38.975Z,56.40
2019-01-21T00:41:26.739Z,51.07
2019-01-21T00:44:14.646Z,51.17
2019-01-21T00:47:02.402Z,52.03
2019-01-21T00:49:49.797Z,48.53
2019-01-21T00:52:37.538Z,52.40
2019-01-21T00:55:25.197Z,46.60
2019-01-21T00:58:13.066Z,45.23
2019-01-21T01:01:00.735Z,51.30
2019-01-21T01:03:48.252Z,45.67
2019-01-21T01:06:35.619Z,47.90
2019-01-21T01:09:22.743Z,44.63
2019-01-21T01:12:10.194Z,45.23
2019-01-21T01:14:58.071Z,46.17
2019-01-21T01:17:45.751Z,44.33
2019-01-21T01:20:33.446Z,49.50
2019-01-21T01:23:21.370Z,43.90
2019-01-21T01:26:08.517Z,46.47
2019-01-21T01:28:56.156Z,44.10
2019-01-21T01:31:43.842Z,42.40
2019-01-21T01:34:31.302Z,41.00
2019-01-21T01:37:18.789Z,44.47
2019-01-21T01:40:08.782Z,41.43
2019-01-21T01:42:56.765Z,44.07
2019-01-21T01:45:44.636Z,43.83
2019-01-21T01:48:32.413Z,46.20
2019-01-21T01:51:20.222Z,39.27
2019-01-21T01:54:07.687Z,40.70
2019-01-21T01:56:55.254Z,40.67
2019-01-21T01:59:43.250Z,41.27
2019-01-21T02:02:31.099Z,42.23
2019-01-21T02:05:18.673Z,44.73
2019-01-21T02:08:06.762Z,45.57
2019-01-21T02:10:54.502Z,41.53
2019-01-21T02:13:42.505Z,42.50
2019-01-21T02:16:30.922Z,39.77
2019-01-21T02:19:22.117Z,41.03
2019-01-21T02:22:11.397Z,40.83
2019-01-21T02:25:02.695Z,41.87
2019-01-21T02:28:20.409Z,42.37
2019-01-21T02:32:07.429Z,38.10
2019-01-21T02:35:21.641Z,40.87
2019-01-21T02:38:54.827Z,41.67
2019-01-21T02:41:54.248Z,39.03
2019-01-21T02:45:09.542Z,42.60
2019-01-21T02:48:29.488Z,39.37
2019-01-21T02:51:50.020Z,40.53
2019-01-21T02:55:19.131Z,37.20
2019-01-21T02:58:35.068Z,40.10
2019-01-21T03:01:50.798Z,39.60
2019-01-21T03:05:06.107Z,41.53
2019-01-21T03:08:26.473Z,41.23
2019-01-21T03:11:46.556Z,40.87
2019-01-21T03:15:00.694Z,39.70
2019-01-21T03:18:11.207Z,37.53
2019-01-21T03:21:30.810Z,40.27
2019-01-21T03:24:51.019Z,38.27
2019-01-21T03:28:03.702Z,39.73
2019-01-21T03:31:35.482Z,39.27
2019-01-21T03:35:20.905Z,39.57
2019-01-21T03:38:27.317Z,41.40
2019-01-21T03:41:40.434Z,39.80
2019-01-21T03:44:53.913Z,37.80
2019-01-21T03:48:16.316Z,41.87
2019-01-21T03:51:37.319Z,39.80
2019-01-21T03:54:50.541Z,36.43
2019-01-21T03:58:21.853Z,43.97
2019-01-21T04:02:06.477Z,46.07
2019-01-21T04:05:55.727Z,43.33
2019-01-21T04:09:10.066Z,40.90
2019-01-21T04:12:22.354Z,39.53
2019-01-21T04:15:54.131Z,38.97
2019-01-21T04:19:33.629Z,39.67
2019-01-21T04:22:51.436Z,36.73
2019-01-21T04:26:09.816Z,38.57
2019-01-21T04:29:23.442Z,36.20
2019-01-21T04:32:19.046Z,38.80
2019-01-21T04:35:21.210Z,41.60
2019-01-21T04:38:50.585Z,39.83
2019-01-21T04:42:07.184Z,40.23
2019-01-21T04:45:17.334Z,41.60
2019-01-21T04:48:34.725Z,37.90
2019-01-21T04:51:58.869Z,39.77
2019-01-21T04:55:26.399Z,37.37
2019-01-21T04:58:47.608Z,44.50
2019-01-21T05:01:54.374Z,39.43
2019-01-21T05:05:02.000Z,39.07
2019-01-21T05:08:35.218Z,43.20
2019-01-21T05:12:02.872Z,40.63
2019-01-21T05:15:17.528Z,39.10
2019-01-21T05:18:51.384Z,43.67
2019-01-21T05:22:21.360Z,44.23
2019-01-21T05:25:46.468Z,39.47
2019-01-21T05:28:52.717Z,41.67
2019-01-21T05:32:12.036Z,40.87
2019-01-21T05:35:41.043Z,42.30
2019-01-21T05:39:07.438Z,38.40
2019-01-21T05:42:30.184Z,39.73
2019-01-21T05:46:03.596Z,44.13
2019-01-21T05:49:38.055Z,46.53
2019-01-21T05:53:13.637Z,43.23
2019-01-21T05:56:48.365Z,42.03
2019-01-21T06:00:14.492Z,41.90
2019-01-21T06:03:37.625Z,44.20
2019-01-21T06:07:04.978Z,40.53
2019-01-21T06:10:08.411Z,40.20
2019-01-21T06:13:09.103Z,40.73
2019-01-21T06:16:47.459Z,41.47
2019-01-21T06:20:24.042Z,42.10
2019-01-21T06:23:54.737Z,38.77
2019-01-21T06:27:23.968Z,36.30
2019-01-21T06:30:39.804Z,39.73
2019-01-21T06:34:24.987Z,42.40
2019-01-21T06:37:37.976Z,45.07
2019-01-21T06:40:49.596Z,55.53
2019-01-21T06:44:11.956Z,69.83
2019-01-21T06:47:33.535Z,54.63
2019-01-21T06:51:05.282Z,47.80
2019-01-21T06:54:08.515Z,41.37
2019-01-21T06:57:37.624Z,47.13
2019-01-21T07:00:50.027Z,44.67
2019-01-21T07:04:33.802Z,41.83
2019-01-21T07:07:52.845Z,43.67
2019-01-21T07:10:56.768Z,41.30
2019-01-21T07:14:25.403Z,49.37
2019-01-21T07:17:56.291Z,39.77
2019-01-21T07:21:14.645Z,40.70
2019-01-21T07:24:43.992Z,46.60
2019-01-21T07:28:20.945Z,48.20
2019-01-21T07:31:39.641Z,55.97
2019-01-21T07:34:58.803Z,42.70
2019-01-21T07:38:19.411Z,51.70
2019-01-21T07:41:17.934Z,46.60
2019-01-21T07:44:53.534Z,53.10
2019-01-21T07:48:18.479Z,56.73
2019-01-21T07:51:39.654Z,64.27
2019-01-21T07:55:06.586Z,51.90
2019-01-21T07:58:21.152Z,46.77
2019-01-21T08:01:22.767Z,57.37
2019-01-21T08:04:54.623Z,50.07
2019-01-21T08:08:06.640Z,52.83
2019-01-21T08:11:26.405Z,50.33
2019-01-21T08:14:39.474Z,58.77
2019-01-21T08:18:10.887Z,51.93
2019-01-21T08:21:22.651Z,58.50
2019-01-21T08:24:50.842Z,50.07
2019-01-21T08:28:17.256Z,58.00
2019-01-21T08:31:46.164Z,57.53
2019-01-21T08:35:12.236Z,46.90
2019-01-21T08:38:53.424Z,50.17
2019-01-21T08:42:22.708Z,47.13
2019-01-21T08:45:33.922Z,46.50
2019-01-21T08:49:04.706Z,45.90
2019-01-21T08:52:24.227Z,45.27
2019-01-21T08:55:40.718Z,41.77
2019-01-21T08:58:57.966Z,45.50
2019-01-21T09:02:18.397Z,41.73
2019-01-21T09:05:49.101Z,41.10
2019-01-21T09:09:07.228Z,42.07
2019-01-21T09:12:49.879Z,37.63
2019-01-21T09:16:19.676Z,41.23
2019-01-21T09:19:37.234Z,38.17
2019-01-21T09:22:31.336Z,35.00
2019-01-21T09:25:34.943Z,37.10
2019-01-21T09:29:18.949Z,36.13
2019-01-21T09:32:37.709Z,34.50
2019-01-21T09:36:07.961Z,38.53
2019-01-21T09:39:37.854Z,36.40
2019-01-21T09:42:35.226Z,34.73
2019-01-21T09:45:53.487Z,35.93
2019-01-21T09:48:39.412Z,35.00
2019-01-21T09:51:27.885Z,32.33
2019-01-21T09:54:18.722Z,34.50
2019-01-21T09:57:08.621Z,33.73
2019-01-21T10:00:08.332Z,36.10
2019-01-21T10:02:59.848Z,34.30
2019-01-21T10:05:55.545Z,35.37
2019-01-21T10:09:00.612Z,33.40
2019-01-21T10:12:35.033Z,32.30
2019-01-21T10:15:50.941Z,33.80
2019-01-21T10:19:34.668Z,35.13
2019-01-21T10:22:56.172Z,35.67
2019-01-21T10:26:33.224Z,34.10
2019-01-21T10:29:53.481Z,35.30
2019-01-21T10:33:27.791Z,36.47
2019-01-21T10:37:11.582Z,34.53
2019-01-21T10:40:40.077Z,35.87
2019-01-21T10:44:16.958Z,35.73
2019-01-21T10:47:27.754Z,35.20
2019-01-21T10:50:58.392Z,36.77
2019-01-21T10:54:12.205Z,36.60
2019-01-21T10:57:33.509Z,36.13
2019-01-21T11:00:48.067Z,38.43
2019-01-21T11:03:56.185Z,35.97
2019-01-21T11:06:59.144Z,34.47
2019-01-21T11:09:53.907Z,37.73
2019-01-21T11:12:57.098Z,40.13
2019-01-21T11:16:08.188Z,36.00
2019-01-21T11:19:25.541Z,34.33
2019-01-21T11:22:35.458Z,37.00
2019-01-21T11:25:59.968Z,35.80
2019-01-21T11:29:33.591Z,36.23
2019-01-21T11:33:01.635Z,37.83
2019-01-21T11:36:33.254Z,32.93
2019-01-21T11:39:50.418Z,35.10
2019-01-21T11:43:24.147Z,38.70
2019-01-21T11:46:34.653Z,39.77
2019-01-21T11:49:48.028Z,39.93
2019-01-21T11:53:06.784Z,37.23
2019-01-21T11:56:24.568Z,39.60
2019-01-21T11:59:43.182Z,38.93
2019-01-21T12:02:57.182Z,38.13
2019-01-21T12:06:21.791Z,40.37
2019-01-21T12:09:49.499Z,39.03
2019-01-21T12:13:14.203Z,39.40
2019-01-21T12:16:41.080Z,36.67
2019-01-21T12:20:00.615Z,41.73
2019-01-21T12:23:30.217Z,38.90
2019-01-21T12:26:39.391Z,40.53
2019-01-21T12:30:03.491Z,41.30
2019-01-21T12:33:07.820Z,45.23
2019-01-21T12:36:16.856Z,45.33
2019-01-21T12:39:36.019Z,48.30
2019-01-21T12:42:46.016Z,45.23
2019-01-21T12:46:14.784Z,46.93
2019-01-21T12:49:37.128Z,46.80
2019-01-21T12:52:42.148Z,46.67
2019-01-21T12:55:47.167Z,47.87
2019-01-21T12:58:49.960Z,47.27
2019-01-21T13:02:11.992Z,45.23
2019-01-21T13:05:35.053Z,43.77
2019-01-21T13:08:52.394Z,41.20
2019-01-21T13:11:53.992Z,43.57
2019-01-21T13:14:56.548Z,44.40
2019-01-21T13:18:13.057Z,43.70
2019-01-21T13:21:27.688Z,45.60
2019-01-21T13:24:31.528Z,48.03
2019-01-21T13:27:58.443Z,49.73
2019-01-21T13:31:26.808Z,47.83
2019-01-21T13:35:03.352Z,48.20
2019-01-21T13:38:38.380Z,42.63
2019-01-21T13:41:50.990Z,47.33
2019-01-21T13:45:15.117Z,58.50
2019-01-21T13:48:45.933Z,50.50
2019-01-21T13:52:00.312Z,46.73
2019-01-21T13:55:25.035Z,46.30
2019-01-21T13:58:52.434Z,49.03
2019-01-21T14:01:58.529Z,46.10
2019-01-21T14:05:08.754Z,48.17
2019-01-21T14:08:32.796Z,46.20
2019-01-21T14:11:44.121Z,45.20
2019-01-21T14:15:21.772Z,42.27
2019-01-21T14:18:30.760Z,45.50
2019-01-21T14:21:48.489Z,44.93
2019-01-21T14:25:13.054Z,41.93
2019-01-21T14:28:33.014Z,43.97
2019-01-21T14:31:50.156Z,48.53
2019-01-21T14:35:05.383Z,41.00
2019-01-21T14:38:40.298Z,49.30
2019-01-21T14:41:56.955Z,51.03
2019-01-21T14:45:15.767Z,44.37
2019-01-21T14:51:14.829Z,50.97
2019-01-21T14:54:34.123Z,46.33
2019-01-21T14:57:57.866Z,45.33
2019-01-21T15:01:29.985Z,42.73
2019-01-21T15:04:52.187Z,40.23
2019-01-21T15:08:02.473Z,41.90
2019-01-21T15:11:20.112Z,43.90
2019-01-21T15:14:31.974Z,40.60
2019-01-21T15:18:02.322Z,43.07
2019-01-21T15:21:20.830Z,46.20
2019-01-21T15:24:48.622Z,43.77
2019-01-21T15:28:13.469Z,42.03
2019-01-21T15:31:23.938Z,42.87
2019-01-21T15:34:55.602Z,41.03
2019-01-21T15:38:23.283Z,46.00
2019-01-21T15:41:41.635Z,52.57
2019-01-21T15:45:08.368Z,49.87
2019-01-21T15:48:08.382Z,52.33
2019-01-21T15:51:28.100Z,51.03
2019-01-21T15:54:27.602Z,49.13
2019-01-21T15:58:05.904Z,47.30
2019-01-21T16:01:36.252Z,50.80
2019-01-21T16:04:46.866Z,46.97
2019-01-21T16:07:42.107Z,49.27
2019-01-21T16:11:31.981Z,47.10
2019-01-21T16:14:27.414Z,48.37
2019-01-21T16:17:57.593Z,51.03
2019-01-21T16:21:04.412Z,45.93
2019-01-21T16:24:31.140Z,50.23
2019-01-21T16:27:48.567Z,54.47
2019-01-21T16:31:00.761Z,47.10
2019-01-21T16:34:36.328Z,51.17
2019-01-21T16:37:54.106Z,46.80
2019-01-21T16:41:20.184Z,49.67
2019-01-21T16:44:08.522Z,52.83
2019-01-21T16:46:56.820Z,49.33
2019-01-21T16:49:47.789Z,53.00
2019-01-21T16:52:38.162Z,52.33
2019-01-21T16:55:30.970Z,53.47
2019-01-21T16:58:22.033Z,51.67
2019-01-21T17:01:14.377Z,49.30
2019-01-21T17:04:05.485Z,56.20
2019-01-21T17:06:54.769Z,54.90
2019-01-21T17:09:45.360Z,54.57
2019-01-21T17:13:01.332Z,54.37
2019-01-21T17:15:49.652Z,51.43
2019-01-21T17:18:37.962Z,53.70
2019-01-21T17:21:27.095Z,55.90
2019-01-21T17:24:15.350Z,53.57
2019-01-21T17:27:06.464Z,53.07
2019-01-21T17:29:54.304Z,50.07
2019-01-21T17:32:42.885Z,52.00
2019-01-21T17:35:31.105Z,53.83
2019-01-21T17:38:19.973Z,56.30
2019-01-21T17:41:08.137Z,54.60
2019-01-21T17:43:56.504Z,59.03
2019-01-21T17:46:45.184Z,51.27
2019-01-21T17:49:32.489Z,51.47
2019-01-21T17:52:20.592Z,49.40
2019-01-21T17:55:08.355Z,50.63
2019-01-21T17:57:55.737Z,60.97
2019-01-21T18:00:42.988Z,49.53
2019-01-21T18:03:30.291Z,48.07
2019-01-21T18:06:17.989Z,50.57
2019-01-21T18:09:08.672Z,47.33
2019-01-21T18:11:56.201Z,43.17
2019-01-21T18:14:43.729Z,48.17
2019-01-21T18:17:31.947Z,50.33
2019-01-21T18:20:25.407Z,54.60
2019-01-21T18:23:12.890Z,49.30
2019-01-21T18:26:00.945Z,47.93
2019-01-21T18:28:48.477Z,48.97
2019-01-21T18:31:35.676Z,48.90
2019-01-21T18:34:22.936Z,49.43
2019-01-21T18:37:10.540Z,43.70
2019-01-21T18:40:00.807Z,48.97
2019-01-21T18:42:49.568Z,50.37
2019-01-21T18:45:37.596Z,46.23
2019-01-21T18:48:24.781Z,46.47
2019-01-21T18:51:11.968Z,45.23
2019-01-21T18:53:59.382Z,52.43
2019-01-21T18:56:46.771Z,49.17
2019-01-21T18:59:34.839Z,42.90
2019-01-21T19:02:22.251Z,46.23
2019-01-21T19:05:10.665Z,54.93
2019-01-21T19:07:58.128Z,57.70
2019-01-21T19:10:49.365Z,55.83
2019-01-21T19:13:37.246Z,52.27
2019-01-21T19:16:24.695Z,55.60
2019-01-21T19:19:12.501Z,52.53
2019-01-21T19:22:00.204Z,57.27
2019-01-21T19:24:47.958Z,51.73
2019-01-21T19:27:35.669Z,67.67
2019-01-21T19:30:25.607Z,66.13
2019-01-21T19:33:13.572Z,58.63
2019-01-21T19:36:03.746Z,55.57
2019-01-21T19:38:57.236Z,56.03
2019-01-21T19:41:49.187Z,49.77
2019-01-21T19:44:37.310Z,52.90
2019-01-21T19:47:27.194Z,53.50
2019-01-21T19:50:16.310Z,51.70
2019-01-21T19:53:03.480Z,52.53
2019-01-21T19:55:50.853Z,51.53
2019-01-21T19:58:38.492Z,51.97
2019-01-21T20:01:25.824Z,52.63
2019-01-21T20:04:13.799Z,50.30
2019-01-21T20:07:02.156Z,51.23
2019-01-21T20:09:55.986Z,49.87
2019-01-21T20:12:50.236Z,53.00
2019-01-21T20:15:38.313Z,44.47
2019-01-21T20:18:25.613Z,48.47
2019-01-21T20:21:13.156Z,53.07
2019-01-21T20:24:00.774Z,48.77
2019-01-21T20:26:50.339Z,52.43
2019-01-21T20:29:43.559Z,48.40
2019-01-21T20:32:52.455Z,48.47
2019-01-21T20:36:36.680Z,50.63
2019-01-21T20:40:02.781Z,51.70
2019-01-21T20:43:15.869Z,53.17
2019-01-21T20:46:16.093Z,48.93
2019-01-21T20:49:36.198Z,53.23
2019-01-21T20:52:38.699Z,51.63
2019-01-21T20:56:04.353Z,50.73
2019-01-21T20:58:56.079Z,50.97
2019-01-21T21:01:43.861Z,52.60
2019-01-21T21:04:31.387Z,46.73
2019-01-21T21:07:18.789Z,47.33
2019-01-21T21:10:07.129Z,48.87
2019-01-21T21:12:54.619Z,49.07
2019-01-21T21:15:42.157Z,49.50
2019-01-21T21:18:29.569Z,48.27
2019-01-21T21:21:17.034Z,46.10
2019-01-21T21:24:04.950Z,46.03
2019-01-21T21:26:52.929Z,48.57
2019-01-21T21:29:41.189Z,45.87
2019-01-21T21:32:37.519Z,46.43
2019-01-21T21:35:26.489Z,48.40
2019-01-21T21:38:14.526Z,49.90
2019-01-21T21:41:03.066Z,48.10
2019-01-21T21:43:52.248Z,48.00
2019-01-21T21:46:45.595Z,48.07
2019-01-21T21:49:33.660Z,49.93
2019-01-21T21:52:27.636Z,49.37
2019-01-21T21:55:15.868Z,42.60
2019-01-21T21:58:11.699Z,46.53
2019-01-21T22:00:59.560Z,47.37
2019-01-21T22:03:46.902Z,47.77
2019-01-21T22:06:34.247Z,49.83
2019-01-21T22:09:21.805Z,48.50
2019-01-21T22:12:09.454Z,46.00
2019-01-21T22:14:57.148Z,43.07
2019-01-21T22:17:44.956Z,48.33
2019-01-21T22:20:32.379Z,44.90
2019-01-21T22:23:20.360Z,51.10
2019-01-21T22:26:07.734Z,49.07
2019-01-21T22:28:55.344Z,48.63
2019-01-21T22:31:42.682Z,47.83
2019-01-21T22:34:30.321Z,41.40
2019-01-21T22:37:17.599Z,46.10
2019-01-21T22:40:06.927Z,47.17
2019-01-21T22:42:54.825Z,45.07
2019-01-21T22:45:42.529Z,48.60
2019-01-21T22:48:30.424Z,47.03
2019-01-21T22:51:18.017Z,47.70
2019-01-21T22:54:05.906Z,45.67
2019-01-21T22:56:53.797Z,48.67
2019-01-21T22:59:41.567Z,50.50
2019-01-21T23:02:29.580Z,49.60
2019-01-21T23:05:18.168Z,47.40
2019-01-21T23:08:05.575Z,50.00
2019-01-21T23:10:53.456Z,49.57
2019-01-21T23:13:41.169Z,50.03
2019-01-21T23:16:29.375Z,50.97
2019-01-21T23:19:16.958Z,51.53
2019-01-21T23:22:04.231Z,54.53
2019-01-21T23:24:52.169Z,50.83
2019-01-21T23:27:39.737Z,54.13
2019-01-21T23:30:27.764Z,57.47
2019-01-21T23:33:15.235Z,53.03
2019-01-21T23:36:03.275Z,52.20
2019-01-21T23:38:50.556Z,54.37
2019-01-21T23:41:38.424Z,53.67
2019-01-21T23:44:26.032Z,54.90
2019-01-21T23:47:13.598Z,55.63
2019-01-21T23:50:00.974Z,55.83
2019-01-21T23:52:55.779Z,53.77
2019-01-21T23:55:38.247Z,49.57
2019-01-21T23:58:25.646Z,54.17
